sensor_id;sensor_type;location;lat;lon;timestamp;P1;durP1;ratioP1;P2;durP2;ratioP2
21472;SDS011;10898;48.072;11.682;2023-04-07T00:04:02;7.68;;;6.75;;
21472;SDS011;10898;48.072;11.682;2023-04-07T00:06:05;10.00;;;7.20;;
21472;SDS011;10898;48.072;11.682;2023-04-07T00:08:07;9.73;;;6.97;;
21472;SDS011;10898;48.072;11.682;2023-04-07T00:10:09;9.55;;;6.68;;
21472;SDS011;10898;48.072;11.682;2023-04-07T00:12:11;8.02;;;6.93;;
21472;SDS011;10898;48.072;11.682;2023-04-07T00:14:13;8.88;;;7.13;;
21472;SDS011;10898;48.072;11.682;2023-04-07T00:16:16;9.50;;;7.47;;
21472;SDS011;10898;48.072;11.682;2023-04-07T00:18:18;9.65;;;7.00;;
21472;SDS011;10898;48.072;11.682;2023-04-07T00:20:20;11.32;;;7.60;;
21472;SDS011;10898;48.072;11.682;2023-04-07T00:22:23;9.35;;;7.30;;
21472;SDS011;10898;48.072;11.682;2023-04-07T00:24:25;10.90;;;6.93;;
21472;SDS011;10898;48.072;11.682;2023-04-07T00:26:34;8.50;;;6.78;;
21472;SDS011;10898;48.072;11.682;2023-04-07T00:28:37;10.93;;;7.40;;
21472;SDS011;10898;48.072;11.682;2023-04-07T00:30:39;7.45;;;6.20;;
21472;SDS011;10898;48.072;11.682;2023-04-07T00:32:41;9.35;;;6.95;;
21472;SDS011;10898;48.072;11.682;2023-04-07T00:34:45;8.10;;;6.70;;
21472;SDS011;10898;48.072;11.682;2023-04-07T00:36:47;9.07;;;7.13;;
21472;SDS011;10898;48.072;11.682;2023-04-07T00:38:52;7.80;;;7.00;;
21472;SDS011;10898;48.072;11.682;2023-04-07T00:40:57;8.45;;;6.43;;
21472;SDS011;10898;48.072;11.682;2023-04-07T00:42:59;9.25;;;7.03;;
21472;SDS011;10898;48.072;11.682;2023-04-07T00:45:01;8.95;;;6.82;;
21472;SDS011;10898;48.072;11.682;2023-04-07T00:47:04;7.93;;;6.95;;
21472;SDS011;10898;48.072;11.682;2023-04-07T00:49:06;10.63;;;6.47;;
21472;SDS011;10898;48.072;11.682;2023-04-07T00:51:11;8.98;;;7.30;;
21472;SDS011;10898;48.072;11.682;2023-04-07T00:53:14;8.93;;;6.78;;
21472;SDS011;10898;48.072;11.682;2023-04-07T00:55:16;7.60;;;6.38;;
21472;SDS011;10898;48.072;11.682;2023-04-07T00:57:19;9.30;;;6.45;;
21472;SDS011;10898;48.072;11.682;2023-04-07T00:59:21;8.10;;;6.93;;
21472;SDS011;10898;48.072;11.682;2023-04-07T01:01:24;8.40;;;7.13;;
21472;SDS011;10898;48.072;11.682;2023-04-07T01:03:29;10.57;;;7.57;;
21472;SDS011;10898;48.072;11.682;2023-04-07T01:09:40;8.35;;;6.05;;
21472;SDS011;10898;48.072;11.682;2023-04-07T01:12:07;7.53;;;6.45;;
21472;SDS011;10898;48.072;11.682;2023-04-07T01:14:06;8.82;;;7.38;;
21472;SDS011;10898;48.072;11.682;2023-04-07T01:16:33;9.00;;;6.70;;
21472;SDS011;10898;48.072;11.682;2023-04-07T01:18:33;8.40;;;7.00;;
21472;SDS011;10898;48.072;11.682;2023-04-07T01:20:36;10.25;;;7.72;;
21472;SDS011;10898;48.072;11.682;2023-04-07T01:26:43;12.70;;;7.40;;
21472;SDS011;10898;48.072;11.682;2023-04-07T01:31:08;9.30;;;6.93;;
21472;SDS011;10898;48.072;11.682;2023-04-07T01:33:11;10.25;;;7.35;;
21472;SDS011;10898;48.072;11.682;2023-04-07T01:35:14;8.43;;;6.85;;
21472;SDS011;10898;48.072;11.682;2023-04-07T01:39:19;9.85;;;7.28;;
21472;SDS011;10898;48.072;11.682;2023-04-07T01:41:22;10.90;;;7.20;;
21472;SDS011;10898;48.072;11.682;2023-04-07T01:43:24;10.93;;;7.32;;
21472;SDS011;10898;48.072;11.682;2023-04-07T01:45:28;8.88;;;7.07;;
21472;SDS011;10898;48.072;11.682;2023-04-07T01:47:31;8.07;;;6.30;;
21472;SDS011;10898;48.072;11.682;2023-04-07T01:51:36;9.25;;;6.90;;
21472;SDS011;10898;48.072;11.682;2023-04-07T01:53:38;8.63;;;6.50;;
21472;SDS011;10898;48.072;11.682;2023-04-07T01:55:43;8.75;;;7.18;;
21472;SDS011;10898;48.072;11.682;2023-04-07T01:57:46;8.65;;;6.45;;
21472;SDS011;10898;48.072;11.682;2023-04-07T01:59:48;6.78;;;6.07;;
21472;SDS011;10898;48.072;11.682;2023-04-07T02:01:50;9.02;;;6.25;;
21472;SDS011;10898;48.072;11.682;2023-04-07T02:03:55;8.93;;;5.78;;
21472;SDS011;10898;48.072;11.682;2023-04-07T02:05:59;9.00;;;6.35;;
21472;SDS011;10898;48.072;11.682;2023-04-07T02:08:04;9.20;;;6.63;;
21472;SDS011;10898;48.072;11.682;2023-04-07T02:10:08;8.95;;;6.75;;
21472;SDS011;10898;48.072;11.682;2023-04-07T02:12:12;9.63;;;6.65;;
21472;SDS011;10898;48.072;11.682;2023-04-07T02:14:15;7.88;;;6.53;;
21472;SDS011;10898;48.072;11.682;2023-04-07T02:16:18;8.25;;;6.60;;
21472;SDS011;10898;48.072;11.682;2023-04-07T02:18:21;8.38;;;6.53;;
21472;SDS011;10898;48.072;11.682;2023-04-07T02:20:24;6.97;;;6.15;;
21472;SDS011;10898;48.072;11.682;2023-04-07T02:22:26;8.18;;;6.38;;
21472;SDS011;10898;48.072;11.682;2023-04-07T02:24:29;8.48;;;6.18;;
21472;SDS011;10898;48.072;11.682;2023-04-07T02:26:32;7.70;;;6.13;;
21472;SDS011;10898;48.072;11.682;2023-04-07T02:28:35;6.78;;;6.03;;
21472;SDS011;10898;48.072;11.682;2023-04-07T02:30:38;7.50;;;6.30;;
21472;SDS011;10898;48.072;11.682;2023-04-07T02:32:40;10.63;;;6.15;;
21472;SDS011;10898;48.072;11.682;2023-04-07T02:34:43;7.13;;;6.07;;
21472;SDS011;10898;48.072;11.682;2023-04-07T02:36:45;8.20;;;6.38;;
21472;SDS011;10898;48.072;11.682;2023-04-07T02:38:47;7.57;;;6.07;;
21472;SDS011;10898;48.072;11.682;2023-04-07T02:40:50;8.93;;;6.18;;
21472;SDS011;10898;48.072;11.682;2023-04-07T02:42:52;7.03;;;5.65;;
21472;SDS011;10898;48.072;11.682;2023-04-07T02:44:54;7.05;;;5.60;;
21472;SDS011;10898;48.072;11.682;2023-04-07T02:46:56;7.07;;;5.93;;
21472;SDS011;10898;48.072;11.682;2023-04-07T02:48:59;6.57;;;5.18;;
21472;SDS011;10898;48.072;11.682;2023-04-07T02:51:01;6.30;;;5.35;;
21472;SDS011;10898;48.072;11.682;2023-04-07T02:53:03;6.63;;;5.10;;
21472;SDS011;10898;48.072;11.682;2023-04-07T02:55:05;6.50;;;5.13;;
21472;SDS011;10898;48.072;11.682;2023-04-07T02:57:08;6.05;;;5.38;;
21472;SDS011;10898;48.072;11.682;2023-04-07T02:59:11;7.88;;;5.10;;
21472;SDS011;10898;48.072;11.682;2023-04-07T03:01:13;6.30;;;5.22;;
21472;SDS011;10898;48.072;11.682;2023-04-07T03:03:15;5.65;;;5.13;;
21472;SDS011;10898;48.072;11.682;2023-04-07T03:05:18;6.95;;;4.90;;
21472;SDS011;10898;48.072;11.682;2023-04-07T03:07:20;5.97;;;4.90;;
21472;SDS011;10898;48.072;11.682;2023-04-07T03:09:22;7.00;;;5.65;;
21472;SDS011;10898;48.072;11.682;2023-04-07T03:11:25;5.22;;;4.72;;
21472;SDS011;10898;48.072;11.682;2023-04-07T03:13:27;5.60;;;4.93;;
21472;SDS011;10898;48.072;11.682;2023-04-07T03:15:32;7.15;;;5.35;;
21472;SDS011;10898;48.072;11.682;2023-04-07T03:17:34;9.13;;;5.53;;
21472;SDS011;10898;48.072;11.682;2023-04-07T03:19:36;6.47;;;5.78;;
21472;SDS011;10898;48.072;11.682;2023-04-07T03:21:38;7.68;;;5.80;;
21472;SDS011;10898;48.072;11.682;2023-04-07T03:23:40;6.65;;;5.60;;
21472;SDS011;10898;48.072;11.682;2023-04-07T03:25:43;7.25;;;5.85;;
21472;SDS011;10898;48.072;11.682;2023-04-07T03:27:49;6.55;;;5.85;;
21472;SDS011;10898;48.072;11.682;2023-04-07T03:29:51;8.15;;;6.28;;
21472;SDS011;10898;48.072;11.682;2023-04-07T03:31:53;8.43;;;5.93;;
21472;SDS011;10898;48.072;11.682;2023-04-07T03:33:56;8.32;;;6.15;;
21472;SDS011;10898;48.072;11.682;2023-04-07T03:35:58;7.80;;;6.10;;
21472;SDS011;10898;48.072;11.682;2023-04-07T03:38:00;7.70;;;6.80;;
21472;SDS011;10898;48.072;11.682;2023-04-07T03:40:03;6.97;;;5.47;;
21472;SDS011;10898;48.072;11.682;2023-04-07T03:42:05;7.65;;;5.60;;
21472;SDS011;10898;48.072;11.682;2023-04-07T03:44:07;7.60;;;6.38;;
21472;SDS011;10898;48.072;11.682;2023-04-07T03:46:09;8.02;;;6.50;;
21472;SDS011;10898;48.072;11.682;2023-04-07T03:48:11;10.63;;;6.38;;
21472;SDS011;10898;48.072;11.682;2023-04-07T03:50:13;10.00;;;6.43;;
21472;SDS011;10898;48.072;11.682;2023-04-07T03:52:16;8.45;;;6.13;;
21472;SDS011;10898;48.072;11.682;2023-04-07T03:54:18;7.10;;;5.93;;
21472;SDS011;10898;48.072;11.682;2023-04-07T03:56:20;8.25;;;6.07;;
21472;SDS011;10898;48.072;11.682;2023-04-07T03:58:23;8.45;;;6.15;;
21472;SDS011;10898;48.072;11.682;2023-04-07T04:00:25;7.50;;;6.05;;
21472;SDS011;10898;48.072;11.682;2023-04-07T04:02:27;8.50;;;6.20;;
21472;SDS011;10898;48.072;11.682;2023-04-07T04:04:30;7.25;;;6.00;;
21472;SDS011;10898;48.072;11.682;2023-04-07T04:06:32;8.00;;;6.22;;
21472;SDS011;10898;48.072;11.682;2023-04-07T04:08:34;8.48;;;6.20;;
21472;SDS011;10898;48.072;11.682;2023-04-07T04:10:37;7.50;;;6.55;;
21472;SDS011;10898;48.072;11.682;2023-04-07T04:12:39;9.10;;;6.63;;
21472;SDS011;10898;48.072;11.682;2023-04-07T04:14:42;7.85;;;6.85;;
21472;SDS011;10898;48.072;11.682;2023-04-07T04:16:44;7.10;;;6.40;;
21472;SDS011;10898;48.072;11.682;2023-04-07T04:18:46;7.05;;;5.88;;
21472;SDS011;10898;48.072;11.682;2023-04-07T04:20:48;8.30;;;7.35;;
21472;SDS011;10898;48.072;11.682;2023-04-07T04:22:51;7.88;;;7.00;;
21472;SDS011;10898;48.072;11.682;2023-04-07T04:24:53;9.93;;;7.03;;
21472;SDS011;10898;48.072;11.682;2023-04-07T04:26:55;9.27;;;7.18;;
21472;SDS011;10898;48.072;11.682;2023-04-07T04:28:58;7.28;;;6.05;;
21472;SDS011;10898;48.072;11.682;2023-04-07T04:31:00;8.13;;;6.43;;
21472;SDS011;10898;48.072;11.682;2023-04-07T04:33:02;9.38;;;6.53;;
21472;SDS011;10898;48.072;11.682;2023-04-07T04:35:05;8.05;;;6.28;;
21472;SDS011;10898;48.072;11.682;2023-04-07T04:37:07;6.82;;;6.13;;
21472;SDS011;10898;48.072;11.682;2023-04-07T04:39:09;8.45;;;6.47;;
21472;SDS011;10898;48.072;11.682;2023-04-07T04:41:11;8.77;;;6.53;;
21472;SDS011;10898;48.072;11.682;2023-04-07T04:43:13;9.18;;;5.57;;
21472;SDS011;10898;48.072;11.682;2023-04-07T04:45:16;6.97;;;6.20;;
21472;SDS011;10898;48.072;11.682;2023-04-07T04:47:18;6.68;;;5.88;;
21472;SDS011;10898;48.072;11.682;2023-04-07T04:49:21;7.47;;;6.57;;
21472;SDS011;10898;48.072;11.682;2023-04-07T04:51:23;8.50;;;6.10;;
21472;SDS011;10898;48.072;11.682;2023-04-07T04:53:26;7.10;;;6.00;;
21472;SDS011;10898;48.072;11.682;2023-04-07T04:55:30;8.18;;;6.32;;
21472;SDS011;10898;48.072;11.682;2023-04-07T04:57:33;8.43;;;6.68;;
21472;SDS011;10898;48.072;11.682;2023-04-07T04:59:36;9.32;;;7.05;;
21472;SDS011;10898;48.072;11.682;2023-04-07T05:01:39;9.32;;;7.13;;
21472;SDS011;10898;48.072;11.682;2023-04-07T05:03:42;9.00;;;7.18;;
21472;SDS011;10898;48.072;11.682;2023-04-07T05:05:46;9.25;;;6.75;;
21472;SDS011;10898;48.072;11.682;2023-04-07T05:07:48;8.27;;;6.72;;
21472;SDS011;10898;48.072;11.682;2023-04-07T05:09:51;8.40;;;7.00;;
21472;SDS011;10898;48.072;11.682;2023-04-07T05:11:53;11.50;;;7.60;;
21472;SDS011;10898;48.072;11.682;2023-04-07T05:15:58;8.82;;;6.85;;
21472;SDS011;10898;48.072;11.682;2023-04-07T05:18:00;10.27;;;7.72;;
21472;SDS011;10898;48.072;11.682;2023-04-07T05:20:03;8.65;;;7.00;;
21472;SDS011;10898;48.072;11.682;2023-04-07T05:22:05;9.57;;;7.93;;
21472;SDS011;10898;48.072;11.682;2023-04-07T05:24:07;9.98;;;6.97;;
21472;SDS011;10898;48.072;11.682;2023-04-07T05:26:09;10.13;;;7.35;;
21472;SDS011;10898;48.072;11.682;2023-04-07T05:28:17;10.68;;;8.23;;
21472;SDS011;10898;48.072;11.682;2023-04-07T05:30:20;8.00;;;6.80;;
21472;SDS011;10898;48.072;11.682;2023-04-07T05:32:22;9.95;;;7.68;;
21472;SDS011;10898;48.072;11.682;2023-04-07T05:34:24;10.65;;;8.50;;
21472;SDS011;10898;48.072;11.682;2023-04-07T05:36:27;10.93;;;8.10;;
21472;SDS011;10898;48.072;11.682;2023-04-07T05:38:29;11.18;;;8.25;;
21472;SDS011;10898;48.072;11.682;2023-04-07T05:40:31;10.45;;;7.93;;
21472;SDS011;10898;48.072;11.682;2023-04-07T05:42:37;9.23;;;7.40;;
21472;SDS011;10898;48.072;11.682;2023-04-07T05:44:39;10.90;;;7.63;;
21472;SDS011;10898;48.072;11.682;2023-04-07T05:46:41;9.70;;;7.80;;
21472;SDS011;10898;48.072;11.682;2023-04-07T05:48:43;9.43;;;7.18;;
21472;SDS011;10898;48.072;11.682;2023-04-07T05:50:45;10.70;;;8.50;;
21472;SDS011;10898;48.072;11.682;2023-04-07T05:52:47;9.48;;;7.30;;
21472;SDS011;10898;48.072;11.682;2023-04-07T05:54:50;10.18;;;8.02;;
21472;SDS011;10898;48.072;11.682;2023-04-07T05:56:52;8.93;;;7.25;;
21472;SDS011;10898;48.072;11.682;2023-04-07T05:58:54;10.30;;;7.50;;
21472;SDS011;10898;48.072;11.682;2023-04-07T06:02:59;10.55;;;7.78;;
21472;SDS011;10898;48.072;11.682;2023-04-07T06:05:02;11.30;;;8.05;;
21472;SDS011;10898;48.072;11.682;2023-04-07T06:07:04;11.15;;;7.78;;
21472;SDS011;10898;48.072;11.682;2023-04-07T06:09:06;10.30;;;7.55;;
21472;SDS011;10898;48.072;11.682;2023-04-07T06:11:08;9.15;;;7.93;;
21472;SDS011;10898;48.072;11.682;2023-04-07T06:13:11;9.38;;;7.78;;
21472;SDS011;10898;48.072;11.682;2023-04-07T06:15:13;9.13;;;7.72;;
21472;SDS011;10898;48.072;11.682;2023-04-07T06:17:15;10.70;;;7.50;;
21472;SDS011;10898;48.072;11.682;2023-04-07T06:19:17;10.27;;;7.78;;
21472;SDS011;10898;48.072;11.682;2023-04-07T06:21:19;10.15;;;7.53;;
21472;SDS011;10898;48.072;11.682;2023-04-07T06:23:22;10.63;;;7.75;;
21472;SDS011;10898;48.072;11.682;2023-04-07T06:25:24;8.57;;;7.65;;
21472;SDS011;10898;48.072;11.682;2023-04-07T06:27:26;9.23;;;7.90;;
21472;SDS011;10898;48.072;11.682;2023-04-07T06:29:29;8.52;;;7.07;;
21472;SDS011;10898;48.072;11.682;2023-04-07T06:31:31;9.85;;;7.45;;
21472;SDS011;10898;48.072;11.682;2023-04-07T06:33:33;10.35;;;7.18;;
21472;SDS011;10898;48.072;11.682;2023-04-07T06:35:36;10.05;;;7.50;;
21472;SDS011;10898;48.072;11.682;2023-04-07T06:37:38;9.68;;;7.70;;
21472;SDS011;10898;48.072;11.682;2023-04-07T06:39:40;9.30;;;7.68;;
21472;SDS011;10898;48.072;11.682;2023-04-07T06:41:42;11.85;;;7.72;;
21472;SDS011;10898;48.072;11.682;2023-04-07T06:43:45;9.65;;;8.35;;
21472;SDS011;10898;48.072;11.682;2023-04-07T06:45:48;9.80;;;7.90;;
21472;SDS011;10898;48.072;11.682;2023-04-07T06:47:50;10.25;;;7.25;;
21472;SDS011;10898;48.072;11.682;2023-04-07T06:49:54;9.80;;;6.80;;
21472;SDS011;10898;48.072;11.682;2023-04-07T06:51:56;9.55;;;8.05;;
21472;SDS011;10898;48.072;11.682;2023-04-07T06:53:58;10.38;;;8.23;;
21472;SDS011;10898;48.072;11.682;2023-04-07T06:56:08;11.75;;;8.05;;
21472;SDS011;10898;48.072;11.682;2023-04-07T06:58:10;9.98;;;8.07;;
21472;SDS011;10898;48.072;11.682;2023-04-07T07:00:13;10.88;;;8.20;;
21472;SDS011;10898;48.072;11.682;2023-04-07T07:02:15;8.50;;;7.68;;
21472;SDS011;10898;48.072;11.682;2023-04-07T07:04:17;8.82;;;7.28;;
21472;SDS011;10898;48.072;11.682;2023-04-07T07:06:20;11.20;;;8.98;;
21472;SDS011;10898;48.072;11.682;2023-04-07T07:08:22;9.40;;;8.23;;
21472;SDS011;10898;48.072;11.682;2023-04-07T07:12:27;11.45;;;8.07;;
21472;SDS011;10898;48.072;11.682;2023-04-07T07:14:29;8.82;;;7.05;;
21472;SDS011;10898;48.072;11.682;2023-04-07T07:16:32;9.23;;;7.82;;
21472;SDS011;10898;48.072;11.682;2023-04-07T07:18:34;10.80;;;8.07;;
21472;SDS011;10898;48.072;11.682;2023-04-07T07:20:37;12.60;;;8.10;;
21472;SDS011;10898;48.072;11.682;2023-04-07T07:22:40;9.52;;;8.30;;
21472;SDS011;10898;48.072;11.682;2023-04-07T07:24:43;9.70;;;8.10;;
21472;SDS011;10898;48.072;11.682;2023-04-07T07:26:45;10.77;;;8.55;;
21472;SDS011;10898;48.072;11.682;2023-04-07T07:28:47;8.30;;;7.38;;
21472;SDS011;10898;48.072;11.682;2023-04-07T07:30:50;10.18;;;8.20;;
21472;SDS011;10898;48.072;11.682;2023-04-07T07:32:52;9.70;;;8.35;;
21472;SDS011;10898;48.072;11.682;2023-04-07T07:36:57;10.95;;;7.43;;
21472;SDS011;10898;48.072;11.682;2023-04-07T07:39:00;10.55;;;8.30;;
21472;SDS011;10898;48.072;11.682;2023-04-07T07:41:02;9.82;;;8.25;;
21472;SDS011;10898;48.072;11.682;2023-04-07T07:43:04;11.55;;;7.60;;
21472;SDS011;10898;48.072;11.682;2023-04-07T07:45:06;9.90;;;8.02;;
21472;SDS011;10898;48.072;11.682;2023-04-07T07:47:09;10.48;;;7.78;;
21472;SDS011;10898;48.072;11.682;2023-04-07T07:49:12;10.43;;;7.63;;
21472;SDS011;10898;48.072;11.682;2023-04-07T07:51:14;10.88;;;7.80;;
21472;SDS011;10898;48.072;11.682;2023-04-07T07:53:18;8.13;;;6.82;;
21472;SDS011;10898;48.072;11.682;2023-04-07T07:55:20;7.72;;;6.93;;
21472;SDS011;10898;48.072;11.682;2023-04-07T07:57:22;7.75;;;6.90;;
21472;SDS011;10898;48.072;11.682;2023-04-07T07:59:25;7.65;;;6.82;;
21472;SDS011;10898;48.072;11.682;2023-04-07T08:01:27;9.57;;;7.50;;
21472;SDS011;10898;48.072;11.682;2023-04-07T08:03:29;8.63;;;7.05;;
21472;SDS011;10898;48.072;11.682;2023-04-07T08:05:36;8.27;;;6.95;;
21472;SDS011;10898;48.072;11.682;2023-04-07T08:07:38;12.00;;;7.53;;
21472;SDS011;10898;48.072;11.682;2023-04-07T08:09:40;11.93;;;7.90;;
21472;SDS011;10898;48.072;11.682;2023-04-07T08:11:43;7.85;;;6.90;;
21472;SDS011;10898;48.072;11.682;2023-04-07T08:13:45;8.48;;;7.00;;
21472;SDS011;10898;48.072;11.682;2023-04-07T08:15:48;7.85;;;7.05;;
21472;SDS011;10898;48.072;11.682;2023-04-07T08:17:51;8.48;;;7.18;;
21472;SDS011;10898;48.072;11.682;2023-04-07T08:19:56;8.68;;;6.95;;
21472;SDS011;10898;48.072;11.682;2023-04-07T08:21:58;7.70;;;6.55;;
21472;SDS011;10898;48.072;11.682;2023-04-07T08:24:00;8.48;;;7.25;;
21472;SDS011;10898;48.072;11.682;2023-04-07T08:26:03;8.85;;;7.57;;
21472;SDS011;10898;48.072;11.682;2023-04-07T08:28:05;8.13;;;6.80;;
21472;SDS011;10898;48.072;11.682;2023-04-07T08:30:07;8.50;;;7.13;;
21472;SDS011;10898;48.072;11.682;2023-04-07T08:34:12;7.30;;;6.50;;
21472;SDS011;10898;48.072;11.682;2023-04-07T08:36:15;10.25;;;7.55;;
21472;SDS011;10898;48.072;11.682;2023-04-07T08:38:17;9.65;;;7.47;;
21472;SDS011;10898;48.072;11.682;2023-04-07T08:40:19;8.90;;;6.78;;
21472;SDS011;10898;48.072;11.682;2023-04-07T08:42:22;8.25;;;7.15;;
21472;SDS011;10898;48.072;11.682;2023-04-07T08:44:27;9.20;;;7.13;;
21472;SDS011;10898;48.072;11.682;2023-04-07T08:46:30;8.95;;;6.65;;
21472;SDS011;10898;48.072;11.682;2023-04-07T08:48:34;8.25;;;6.90;;
21472;SDS011;10898;48.072;11.682;2023-04-07T08:50:37;9.45;;;7.28;;
21472;SDS011;10898;48.072;11.682;2023-04-07T08:52:53;8.88;;;6.90;;
21472;SDS011;10898;48.072;11.682;2023-04-07T08:54:56;8.93;;;7.18;;
21472;SDS011;10898;48.072;11.682;2023-04-07T08:57:06;8.65;;;7.32;;
21472;SDS011;10898;48.072;11.682;2023-04-07T08:59:11;9.35;;;7.07;;
21472;SDS011;10898;48.072;11.682;2023-04-07T09:01:20;7.25;;;6.55;;
21472;SDS011;10898;48.072;11.682;2023-04-07T09:03:22;10.77;;;6.82;;
21472;SDS011;10898;48.072;11.682;2023-04-07T09:05:25;8.23;;;6.68;;
21472;SDS011;10898;48.072;11.682;2023-04-07T09:07:28;7.88;;;6.53;;
21472;SDS011;10898;48.072;11.682;2023-04-07T09:09:30;8.57;;;6.55;;
21472;SDS011;10898;48.072;11.682;2023-04-07T09:11:37;9.55;;;6.93;;
21472;SDS011;10898;48.072;11.682;2023-04-07T09:13:40;8.13;;;6.32;;
21472;SDS011;10898;48.072;11.682;2023-04-07T09:15:42;7.32;;;6.57;;
21472;SDS011;10898;48.072;11.682;2023-04-07T09:17:45;7.45;;;6.60;;
21472;SDS011;10898;48.072;11.682;2023-04-07T09:19:47;9.10;;;7.03;;
21472;SDS011;10898;48.072;11.682;2023-04-07T09:21:50;7.60;;;6.60;;
21472;SDS011;10898;48.072;11.682;2023-04-07T09:23:52;7.72;;;6.90;;
21472;SDS011;10898;48.072;11.682;2023-04-07T09:25:55;8.90;;;6.72;;
21472;SDS011;10898;48.072;11.682;2023-04-07T09:28:01;8.65;;;7.30;;
21472;SDS011;10898;48.072;11.682;2023-04-07T09:30:10;8.30;;;6.82;;
21472;SDS011;10898;48.072;11.682;2023-04-07T09:32:22;9.35;;;7.32;;
21472;SDS011;10898;48.072;11.682;2023-04-07T09:34:37;8.35;;;7.28;;
21472;SDS011;10898;48.072;11.682;2023-04-07T09:36:41;7.85;;;6.82;;
21472;SDS011;10898;48.072;11.682;2023-04-07T09:38:43;6.97;;;6.00;;
21472;SDS011;10898;48.072;11.682;2023-04-07T09:40:46;8.70;;;7.57;;
21472;SDS011;10898;48.072;11.682;2023-04-07T09:42:48;9.40;;;6.90;;
21472;SDS011;10898;48.072;11.682;2023-04-07T09:44:50;7.57;;;6.80;;
21472;SDS011;10898;48.072;11.682;2023-04-07T09:49:03;7.55;;;6.20;;
21472;SDS011;10898;48.072;11.682;2023-04-07T09:51:06;11.15;;;7.97;;
21472;SDS011;10898;48.072;11.682;2023-04-07T09:53:08;14.02;;;8.05;;
21472;SDS011;10898;48.072;11.682;2023-04-07T09:55:11;8.85;;;6.90;;
21472;SDS011;10898;48.072;11.682;2023-04-07T09:57:14;8.68;;;6.60;;
21472;SDS011;10898;48.072;11.682;2023-04-07T09:59:18;7.90;;;7.10;;
21472;SDS011;10898;48.072;11.682;2023-04-07T10:03:23;8.57;;;7.10;;
21472;SDS011;10898;48.072;11.682;2023-04-07T10:05:26;7.82;;;7.03;;
21472;SDS011;10898;48.072;11.682;2023-04-07T10:07:28;7.88;;;7.00;;
21472;SDS011;10898;48.072;11.682;2023-04-07T10:09:32;9.50;;;7.05;;
21472;SDS011;10898;48.072;11.682;2023-04-07T10:11:34;7.38;;;6.05;;
21472;SDS011;10898;48.072;11.682;2023-04-07T10:13:38;7.20;;;6.38;;
21472;SDS011;10898;48.072;11.682;2023-04-07T10:15:41;7.90;;;6.50;;
21472;SDS011;10898;48.072;11.682;2023-04-07T10:17:44;7.97;;;6.07;;
21472;SDS011;10898;48.072;11.682;2023-04-07T10:19:49;9.40;;;6.40;;
21472;SDS011;10898;48.072;11.682;2023-04-07T10:21:52;7.40;;;5.78;;
21472;SDS011;10898;48.072;11.682;2023-04-07T10:23:58;7.88;;;5.93;;
21472;SDS011;10898;48.072;11.682;2023-04-07T10:26:05;8.75;;;6.38;;
21472;SDS011;10898;48.072;11.682;2023-04-07T10:28:08;10.25;;;7.32;;
21472;SDS011;10898;48.072;11.682;2023-04-07T10:30:13;7.55;;;5.90;;
21472;SDS011;10898;48.072;11.682;2023-04-07T10:32:15;6.88;;;5.72;;
21472;SDS011;10898;48.072;11.682;2023-04-07T10:34:41;6.90;;;6.20;;
21472;SDS011;10898;48.072;11.682;2023-04-07T10:39:18;7.97;;;6.50;;
21472;SDS011;10898;48.072;11.682;2023-04-07T10:41:39;10.30;;;9.10;;
21472;SDS011;10898;48.072;11.682;2023-04-07T10:43:41;6.75;;;6.03;;
21472;SDS011;10898;48.072;11.682;2023-04-07T10:50:14;8.52;;;5.43;;
21472;SDS011;10898;48.072;11.682;2023-04-07T10:52:21;7.53;;;6.15;;
21472;SDS011;10898;48.072;11.682;2023-04-07T10:54:24;7.38;;;6.03;;
21472;SDS011;10898;48.072;11.682;2023-04-07T10:57:02;7.22;;;5.38;;
21472;SDS011;10898;48.072;11.682;2023-04-07T10:59:13;7.13;;;6.32;;
21472;SDS011;10898;48.072;11.682;2023-04-07T11:03:16;6.97;;;6.07;;
21472;SDS011;10898;48.072;11.682;2023-04-07T11:05:19;7.88;;;6.22;;
21472;SDS011;10898;48.072;11.682;2023-04-07T11:07:41;6.30;;;5.32;;
21472;SDS011;10898;48.072;11.682;2023-04-07T11:09:44;6.85;;;6.15;;
21472;SDS011;10898;48.072;11.682;2023-04-07T11:11:46;8.75;;;5.70;;
21472;SDS011;10898;48.072;11.682;2023-04-07T11:13:49;9.32;;;6.20;;
21472;SDS011;10898;48.072;11.682;2023-04-07T11:15:52;7.03;;;6.32;;
21472;SDS011;10898;48.072;11.682;2023-04-07T11:20:15;7.53;;;5.93;;
21472;SDS011;10898;48.072;11.682;2023-04-07T11:22:17;7.68;;;6.85;;
21472;SDS011;10898;48.072;11.682;2023-04-07T11:24:31;7.93;;;6.55;;
21472;SDS011;10898;48.072;11.682;2023-04-07T11:26:37;7.95;;;6.32;;
21472;SDS011;10898;48.072;11.682;2023-04-07T11:28:51;8.13;;;7.32;;
21472;SDS011;10898;48.072;11.682;2023-04-07T11:30:53;7.68;;;6.35;;
21472;SDS011;10898;48.072;11.682;2023-04-07T11:32:56;7.78;;;6.30;;
21472;SDS011;10898;48.072;11.682;2023-04-07T11:34:58;6.78;;;5.97;;
21472;SDS011;10898;48.072;11.682;2023-04-07T11:37:22;7.55;;;6.47;;
21472;SDS011;10898;48.072;11.682;2023-04-07T11:39:23;9.47;;;6.83;;
21472;SDS011;10898;48.072;11.682;2023-04-07T11:41:28;10.25;;;6.95;;
21472;SDS011;10898;48.072;11.682;2023-04-07T11:43:31;6.93;;;5.80;;
21472;SDS011;10898;48.072;11.682;2023-04-07T11:45:33;6.00;;;5.40;;
21472;SDS011;10898;48.072;11.682;2023-04-07T11:47:36;6.88;;;5.72;;
21472;SDS011;10898;48.072;11.682;2023-04-07T11:49:45;7.25;;;5.95;;
21472;SDS011;10898;48.072;11.682;2023-04-07T11:51:48;7.97;;;5.97;;
21472;SDS011;10898;48.072;11.682;2023-04-07T11:53:58;6.95;;;6.20;;
21472;SDS011;10898;48.072;11.682;2023-04-07T11:56:01;6.53;;;5.85;;
21472;SDS011;10898;48.072;11.682;2023-04-07T11:58:04;7.00;;;6.05;;
21472;SDS011;10898;48.072;11.682;2023-04-07T12:00:07;8.10;;;6.00;;
21472;SDS011;10898;48.072;11.682;2023-04-07T12:04:12;6.85;;;6.03;;
21472;SDS011;10898;48.072;11.682;2023-04-07T12:06:25;6.63;;;5.95;;
21472;SDS011;10898;48.072;11.682;2023-04-07T12:08:35;6.82;;;5.57;;
21472;SDS011;10898;48.072;11.682;2023-04-07T12:10:38;6.93;;;5.82;;
21472;SDS011;10898;48.072;11.682;2023-04-07T12:12:41;6.60;;;5.90;;
21472;SDS011;10898;48.072;11.682;2023-04-07T12:14:46;8.38;;;6.28;;
21472;SDS011;10898;48.072;11.682;2023-04-07T12:16:49;8.80;;;6.70;;
21472;SDS011;10898;48.072;11.682;2023-04-07T12:18:51;7.15;;;6.45;;
21472;SDS011;10898;48.072;11.682;2023-04-07T12:20:53;6.50;;;5.90;;
21472;SDS011;10898;48.072;11.682;2023-04-07T12:22:56;7.78;;;6.35;;
21472;SDS011;10898;48.072;11.682;2023-04-07T12:25:00;7.80;;;5.78;;
21472;SDS011;10898;48.072;11.682;2023-04-07T12:27:02;6.30;;;5.70;;
21472;SDS011;10898;48.072;11.682;2023-04-07T12:29:04;6.63;;;5.90;;
21472;SDS011;10898;48.072;11.682;2023-04-07T12:31:07;7.00;;;6.30;;
21472;SDS011;10898;48.072;11.682;2023-04-07T12:33:10;7.38;;;6.57;;
21472;SDS011;10898;48.072;11.682;2023-04-07T12:35:12;8.30;;;5.80;;
21472;SDS011;10898;48.072;11.682;2023-04-07T12:37:14;7.85;;;6.53;;
21472;SDS011;10898;48.072;11.682;2023-04-07T12:39:17;7.70;;;6.22;;
21472;SDS011;10898;48.072;11.682;2023-04-07T12:41:19;6.53;;;5.72;;
21472;SDS011;10898;48.072;11.682;2023-04-07T12:43:21;6.05;;;5.45;;
21472;SDS011;10898;48.072;11.682;2023-04-07T12:45:23;7.00;;;6.30;;
21472;SDS011;10898;48.072;11.682;2023-04-07T12:47:26;7.43;;;5.70;;
21472;SDS011;10898;48.072;11.682;2023-04-07T12:49:28;7.57;;;5.90;;
21472;SDS011;10898;48.072;11.682;2023-04-07T12:51:30;6.63;;;5.68;;
21472;SDS011;10898;48.072;11.682;2023-04-07T12:53:33;6.80;;;5.78;;
21472;SDS011;10898;48.072;11.682;2023-04-07T12:55:36;7.07;;;6.07;;
21472;SDS011;10898;48.072;11.682;2023-04-07T12:57:38;6.45;;;5.75;;